sensor_id;sensor_type;location;lat;lon;timestamp;P1;durP1;ratioP1;P2;durP2;ratioP2
53521;SDS011;39398;48.382;9.802;2023-02-28T00:01:16;7.35;;;4.75;;
53521;SDS011;39398;48.382;9.802;2023-02-28T00:06:18;9.73;;;5.32;;
53521;SDS011;39398;48.382;9.802;2023-02-28T00:11:20;8.02;;;4.72;;
53521;SDS011;39398;48.382;9.802;2023-02-28T00:16:23;8.35;;;4.60;;
53521;SDS011;39398;48.382;9.802;2023-02-28T00:21:25;7.95;;;4.90;;
53521;SDS011;39398;48.382;9.802;2023-02-28T00:26:27;6.85;;;5.38;;
53521;SDS011;39398;48.382;9.802;2023-02-28T00:31:30;7.95;;;4.90;;
53521;SDS011;39398;48.382;9.802;2023-02-28T00:36:31;8.07;;;4.40;;
53521;SDS011;39398;48.382;9.802;2023-02-28T00:41:33;8.43;;;5.65;;
53521;SDS011;39398;48.382;9.802;2023-02-28T00:46:36;7.15;;;4.07;;
53521;SDS011;39398;48.382;9.802;2023-02-28T00:51:37;6.82;;;4.38;;
53521;SDS011;39398;48.382;9.802;2023-02-28T00:56:39;8.02;;;5.10;;
53521;SDS011;39398;48.382;9.802;2023-02-28T01:01:42;8.23;;;5.53;;
53521;SDS011;39398;48.382;9.802;2023-02-28T01:06:44;8.13;;;4.45;;
53521;SDS011;39398;48.382;9.802;2023-02-28T01:11:46;6.30;;;4.18;;
53521;SDS011;39398;48.382;9.802;2023-02-28T01:16:49;5.38;;;3.95;;
53521;SDS011;39398;48.382;9.802;2023-02-28T01:21:51;6.70;;;5.05;;
53521;SDS011;39398;48.382;9.802;2023-02-28T01:26:52;7.68;;;5.03;;
53521;SDS011;39398;48.382;9.802;2023-02-28T01:31:55;7.65;;;4.85;;
53521;SDS011;39398;48.382;9.802;2023-02-28T01:36:57;7.38;;;4.20;;
53521;SDS011;39398;48.382;9.802;2023-02-28T01:41:58;5.88;;;4.25;;
53521;SDS011;39398;48.382;9.802;2023-02-28T01:47:01;7.10;;;4.13;;
53521;SDS011;39398;48.382;9.802;2023-02-28T01:52:03;9.05;;;5.22;;
53521;SDS011;39398;48.382;9.802;2023-02-28T01:57:05;6.45;;;4.63;;
53521;SDS011;39398;48.382;9.802;2023-02-28T02:02:12;10.43;;;5.40;;
53521;SDS011;39398;48.382;9.802;2023-02-28T02:07:14;3.75;;;3.10;;
53521;SDS011;39398;48.382;9.802;2023-02-28T02:12:19;5.13;;;4.10;;
53521;SDS011;39398;48.382;9.802;2023-02-28T02:17:35;7.90;;;5.20;;
53521;SDS011;39398;48.382;9.802;2023-02-28T02:28:18;7.78;;;5.47;;
53521;SDS011;39398;48.382;9.802;2023-02-28T02:39:11;7.50;;;4.60;;
53521;SDS011;39398;48.382;9.802;2023-02-28T02:44:18;6.43;;;4.93;;
53521;SDS011;39398;48.382;9.802;2023-02-28T02:49:25;6.50;;;4.07;;
53521;SDS011;39398;48.382;9.802;2023-02-28T02:54:30;6.40;;;4.40;;
53521;SDS011;39398;48.382;9.802;2023-02-28T02:59:34;7.22;;;4.60;;
53521;SDS011;39398;48.382;9.802;2023-02-28T03:04:40;7.43;;;4.93;;
53521;SDS011;39398;48.382;9.802;2023-02-28T03:09:49;5.50;;;4.03;;
53521;SDS011;39398;48.382;9.802;2023-02-28T03:14:55;8.68;;;4.53;;
53521;SDS011;39398;48.382;9.802;2023-02-28T03:20:06;8.93;;;5.20;;
53521;SDS011;39398;48.382;9.802;2023-02-28T03:25:15;8.73;;;4.40;;
53521;SDS011;39398;48.382;9.802;2023-02-28T03:30:23;8.10;;;5.40;;
53521;SDS011;39398;48.382;9.802;2023-02-28T03:35:31;10.13;;;5.78;;
53521;SDS011;39398;48.382;9.802;2023-02-28T03:40:35;9.23;;;5.33;;
53521;SDS011;39398;48.382;9.802;2023-02-28T03:45:39;10.77;;;6.38;;
53521;SDS011;39398;48.382;9.802;2023-02-28T03:50:47;10.27;;;5.78;;
53521;SDS011;39398;48.382;9.802;2023-02-28T03:55:53;8.57;;;4.60;;
53521;SDS011;39398;48.382;9.802;2023-02-28T04:01:01;10.13;;;7.18;;
53521;SDS011;39398;48.382;9.802;2023-02-28T04:06:13;8.50;;;5.88;;
53521;SDS011;39398;48.382;9.802;2023-02-28T04:11:19;10.60;;;6.97;;
53521;SDS011;39398;48.382;9.802;2023-02-28T04:16:23;9.35;;;6.45;;
53521;SDS011;39398;48.382;9.802;2023-02-28T04:21:37;10.25;;;5.85;;
53521;SDS011;39398;48.382;9.802;2023-02-28T04:26:41;10.35;;;6.57;;
53521;SDS011;39398;48.382;9.802;2023-02-28T04:31:44;11.40;;;6.15;;
53521;SDS011;39398;48.382;9.802;2023-02-28T04:36:47;10.60;;;6.80;;
53521;SDS011;39398;48.382;9.802;2023-02-28T04:42:02;13.55;;;8.05;;
53521;SDS011;39398;48.382;9.802;2023-02-28T04:47:04;9.50;;;6.13;;
53521;SDS011;39398;48.382;9.802;2023-02-28T04:52:07;12.10;;;7.40;;
53521;SDS011;39398;48.382;9.802;2023-02-28T04:57:08;11.18;;;7.07;;
53521;SDS011;39398;48.382;9.802;2023-02-28T05:02:10;12.57;;;8.20;;
53521;SDS011;39398;48.382;9.802;2023-02-28T05:07:13;13.23;;;8.77;;
53521;SDS011;39398;48.382;9.802;2023-02-28T05:12:14;11.68;;;7.35;;
53521;SDS011;39398;48.382;9.802;2023-02-28T05:17:16;14.60;;;7.63;;
53521;SDS011;39398;48.382;9.802;2023-02-28T05:22:19;13.93;;;8.32;;
53521;SDS011;39398;48.382;9.802;2023-02-28T05:27:21;13.27;;;9.15;;
53521;SDS011;39398;48.382;9.802;2023-02-28T05:32:22;16.02;;;9.40;;
53521;SDS011;39398;48.382;9.802;2023-02-28T05:37:26;13.85;;;8.65;;
53521;SDS011;39398;48.382;9.802;2023-02-28T05:42:27;15.25;;;8.30;;
53521;SDS011;39398;48.382;9.802;2023-02-28T05:47:29;15.40;;;8.43;;
53521;SDS011;39398;48.382;9.802;2023-02-28T05:52:32;12.23;;;8.50;;
53521;SDS011;39398;48.382;9.802;2023-02-28T05:57:33;15.52;;;9.80;;
53521;SDS011;39398;48.382;9.802;2023-02-28T06:02:35;19.80;;;9.43;;
53521;SDS011;39398;48.382;9.802;2023-02-28T06:07:38;16.15;;;9.20;;
53521;SDS011;39398;48.382;9.802;2023-02-28T06:12:40;15.45;;;9.45;;
53521;SDS011;39398;48.382;9.802;2023-02-28T06:17:42;15.57;;;9.63;;
53521;SDS011;39398;48.382;9.802;2023-02-28T06:22:45;19.60;;;10.50;;
53521;SDS011;39398;48.382;9.802;2023-02-28T06:27:47;16.25;;;9.25;;
53521;SDS011;39398;48.382;9.802;2023-02-28T06:32:48;15.15;;;9.38;;
53521;SDS011;39398;48.382;9.802;2023-02-28T06:37:51;16.88;;;10.65;;
53521;SDS011;39398;48.382;9.802;2023-02-28T06:42:53;17.30;;;10.63;;
53521;SDS011;39398;48.382;9.802;2023-02-28T06:47:54;18.42;;;9.95;;
53521;SDS011;39398;48.382;9.802;2023-02-28T06:52:57;17.10;;;10.50;;
53521;SDS011;39398;48.382;9.802;2023-02-28T06:57:59;18.45;;;9.68;;
53521;SDS011;39398;48.382;9.802;2023-02-28T07:03:01;18.88;;;11.73;;
53521;SDS011;39398;48.382;9.802;2023-02-28T07:08:04;17.83;;;9.90;;
53521;SDS011;39398;48.382;9.802;2023-02-28T07:13:07;19.75;;;11.13;;
53521;SDS011;39398;48.382;9.802;2023-02-28T07:18:09;21.73;;;12.70;;
53521;SDS011;39398;48.382;9.802;2023-02-28T07:23:12;19.95;;;11.77;;
53521;SDS011;39398;48.382;9.802;2023-02-28T07:28:13;20.15;;;11.63;;
53521;SDS011;39398;48.382;9.802;2023-02-28T07:33:15;20.58;;;11.25;;
53521;SDS011;39398;48.382;9.802;2023-02-28T07:38:18;21.35;;;10.88;;
53521;SDS011;39398;48.382;9.802;2023-02-28T07:43:20;22.25;;;12.13;;
53521;SDS011;39398;48.382;9.802;2023-02-28T07:48:21;21.02;;;12.35;;
53521;SDS011;39398;48.382;9.802;2023-02-28T07:53:24;19.55;;;10.93;;
53521;SDS011;39398;48.382;9.802;2023-02-28T07:58:27;19.25;;;10.55;;
53521;SDS011;39398;48.382;9.802;2023-02-28T08:03:29;19.67;;;10.85;;
53521;SDS011;39398;48.382;9.802;2023-02-28T08:08:32;20.15;;;11.77;;
53521;SDS011;39398;48.382;9.802;2023-02-28T08:13:33;21.45;;;12.63;;
53521;SDS011;39398;48.382;9.802;2023-02-28T08:18:35;21.65;;;11.88;;
53521;SDS011;39398;48.382;9.802;2023-02-28T08:23:38;22.00;;;12.63;;
53521;SDS011;39398;48.382;9.802;2023-02-28T08:28:40;23.63;;;11.88;;
53521;SDS011;39398;48.382;9.802;2023-02-28T08:33:41;22.30;;;15.18;;
53521;SDS011;39398;48.382;9.802;2023-02-28T08:38:45;22.15;;;11.38;;
53521;SDS011;39398;48.382;9.802;2023-02-28T08:43:47;18.88;;;11.45;;
53521;SDS011;39398;48.382;9.802;2023-02-28T08:48:51;21.33;;;12.18;;
53521;SDS011;39398;48.382;9.802;2023-02-28T08:53:55;24.25;;;13.15;;
53521;SDS011;39398;48.382;9.802;2023-02-28T08:58:58;22.63;;;13.43;;
53521;SDS011;39398;48.382;9.802;2023-02-28T09:04:01;23.33;;;11.90;;
53521;SDS011;39398;48.382;9.802;2023-02-28T09:09:04;20.40;;;11.98;;
53521;SDS011;39398;48.382;9.802;2023-02-28T09:14:06;19.75;;;11.82;;
53521;SDS011;39398;48.382;9.802;2023-02-28T09:19:10;21.33;;;12.82;;
53521;SDS011;39398;48.382;9.802;2023-02-28T09:24:13;20.00;;;12.02;;
53521;SDS011;39398;48.382;9.802;2023-02-28T09:29:14;22.80;;;13.55;;
53521;SDS011;39398;48.382;9.802;2023-02-28T09:34:16;18.27;;;10.48;;
53521;SDS011;39398;48.382;9.802;2023-02-28T09:39:19;22.42;;;13.00;;
53521;SDS011;39398;48.382;9.802;2023-02-28T09:44:22;19.63;;;11.90;;
53521;SDS011;39398;48.382;9.802;2023-02-28T09:49:31;19.65;;;11.77;;
53521;SDS011;39398;48.382;9.802;2023-02-28T09:54:39;18.73;;;11.45;;
53521;SDS011;39398;48.382;9.802;2023-02-28T09:59:49;24.10;;;13.30;;
53521;SDS011;39398;48.382;9.802;2023-02-28T10:04:59;17.00;;;11.23;;
53521;SDS011;39398;48.382;9.802;2023-02-28T10:15:23;20.77;;;13.10;;
53521;SDS011;39398;48.382;9.802;2023-02-28T10:20:26;19.83;;;11.85;;
53521;SDS011;39398;48.382;9.802;2023-02-28T10:25:30;20.35;;;12.50;;
53521;SDS011;39398;48.382;9.802;2023-02-28T10:30:31;20.40;;;12.10;;
53521;SDS011;39398;48.382;9.802;2023-02-28T10:35:33;18.83;;;11.38;;
53521;SDS011;39398;48.382;9.802;2023-02-28T10:40:37;20.17;;;12.77;;
53521;SDS011;39398;48.382;9.802;2023-02-28T10:45:39;20.02;;;12.20;;
53521;SDS011;39398;48.382;9.802;2023-02-28T10:50:53;21.65;;;14.05;;
53521;SDS011;39398;48.382;9.802;2023-02-28T10:55:58;25.85;;;16.33;;
53521;SDS011;39398;48.382;9.802;2023-02-28T11:01:02;18.35;;;11.00;;
53521;SDS011;39398;48.382;9.802;2023-02-28T11:06:05;19.77;;;12.18;;
53521;SDS011;39398;48.382;9.802;2023-02-28T11:11:10;21.35;;;13.13;;
53521;SDS011;39398;48.382;9.802;2023-02-28T11:16:12;25.48;;;15.35;;
53521;SDS011;39398;48.382;9.802;2023-02-28T11:21:16;19.85;;;12.77;;
53521;SDS011;39398;48.382;9.802;2023-02-28T11:26:40;20.20;;;12.97;;
53521;SDS011;39398;48.382;9.802;2023-02-28T11:31:43;20.90;;;14.65;;
53521;SDS011;39398;48.382;9.802;2023-02-28T11:36:45;20.80;;;15.55;;
53521;SDS011;39398;48.382;9.802;2023-02-28T11:41:53;20.67;;;15.43;;
53521;SDS011;39398;48.382;9.802;2023-02-28T11:47:06;21.70;;;13.75;;
53521;SDS011;39398;48.382;9.802;2023-02-28T11:52:20;21.42;;;14.75;;
53521;SDS011;39398;48.382;9.802;2023-02-28T11:57:35;20.45;;;14.18;;
53521;SDS011;39398;48.382;9.802;2023-02-28T12:02:52;21.75;;;13.38;;
53521;SDS011;39398;48.382;9.802;2023-02-28T12:08:06;22.25;;;14.52;;
53521;SDS011;39398;48.382;9.802;2023-02-28T12:13:24;21.40;;;14.00;;
53521;SDS011;39398;48.382;9.802;2023-02-28T12:18:40;17.52;;;11.30;;
53521;SDS011;39398;48.382;9.802;2023-02-28T12:23:56;19.67;;;12.38;;
53521;SDS011;39398;48.382;9.802;2023-02-28T12:29:12;21.42;;;11.25;;
53521;SDS011;39398;48.382;9.802;2023-02-28T12:34:19;22.95;;;15.27;;
53521;SDS011;39398;48.382;9.802;2023-02-28T12:39:23;17.55;;;10.90;;
53521;SDS011;39398;48.382;9.802;2023-02-28T12:44:30;17.27;;;11.93;;
53521;SDS011;39398;48.382;9.802;2023-02-28T12:49:36;20.27;;;12.93;;
53521;SDS011;39398;48.382;9.802;2023-02-28T12:54:44;20.55;;;14.27;;
53521;SDS011;39398;48.382;9.802;2023-02-28T12:59:52;24.33;;;16.77;;
53521;SDS011;39398;48.382;9.802;2023-02-28T13:05:07;21.40;;;14.88;;
53521;SDS011;39398;48.382;9.802;2023-02-28T13:10:37;20.75;;;13.75;;
53521;SDS011;39398;48.382;9.802;2023-02-28T13:15:41;20.77;;;14.82;;
53521;SDS011;39398;48.382;9.802;2023-02-28T13:20:59;20.35;;;14.18;;
53521;SDS011;39398;48.382;9.802;2023-02-28T13:26:01;23.48;;;14.05;;
53521;SDS011;39398;48.382;9.802;2023-02-28T13:31:05;15.57;;;10.88;;
53521;SDS011;39398;48.382;9.802;2023-02-28T13:36:08;18.60;;;11.15;;
53521;SDS011;39398;48.382;9.802;2023-02-28T13:52:25;19.63;;;11.15;;
53521;SDS011;39398;48.382;9.802;2023-02-28T13:57:30;20.52;;;13.05;;
53521;SDS011;39398;48.382;9.802;2023-02-28T14:02:48;23.98;;;14.45;;
53521;SDS011;39398;48.382;9.802;2023-02-28T14:08:04;17.08;;;12.98;;
53521;SDS011;39398;48.382;9.802;2023-02-28T14:13:13;19.75;;;13.40;;
53521;SDS011;39398;48.382;9.802;2023-02-28T14:18:32;19.00;;;13.18;;
53521;SDS011;39398;48.382;9.802;2023-02-28T14:34:54;17.20;;;8.55;;
53521;SDS011;39398;48.382;9.802;2023-02-28T14:40:04;16.90;;;11.90;;
53521;SDS011;39398;48.382;9.802;2023-02-28T14:45:17;17.27;;;11.75;;
53521;SDS011;39398;48.382;9.802;2023-02-28T14:50:22;18.73;;;12.70;;
53521;SDS011;39398;48.382;9.802;2023-02-28T14:55:26;17.35;;;12.57;;
53521;SDS011;39398;48.382;9.802;2023-02-28T15:00:30;18.40;;;13.07;;
53521;SDS011;39398;48.382;9.802;2023-02-28T15:05:34;21.17;;;13.82;;
53521;SDS011;39398;48.382;9.802;2023-02-28T15:10:36;18.88;;;14.20;;
53521;SDS011;39398;48.382;9.802;2023-02-28T15:15:42;21.08;;;13.32;;
53521;SDS011;39398;48.382;9.802;2023-02-28T15:21:03;18.33;;;13.45;;
53521;SDS011;39398;48.382;9.802;2023-02-28T15:26:09;26.20;;;17.88;;
53521;SDS011;39398;48.382;9.802;2023-02-28T15:31:21;17.63;;;12.48;;
53521;SDS011;39398;48.382;9.802;2023-02-28T15:36:30;19.70;;;13.95;;
53521;SDS011;39398;48.382;9.802;2023-02-28T15:41:35;21.52;;;14.82;;
53521;SDS011;39398;48.382;9.802;2023-02-28T15:46:37;15.65;;;9.68;;
53521;SDS011;39398;48.382;9.802;2023-02-28T15:51:41;18.85;;;12.30;;
53521;SDS011;39398;48.382;9.802;2023-02-28T15:56:43;15.60;;;10.88;;
53521;SDS011;39398;48.382;9.802;2023-02-28T16:01:47;17.15;;;10.88;;
53521;SDS011;39398;48.382;9.802;2023-02-28T16:07:12;21.15;;;14.38;;
53521;SDS011;39398;48.382;9.802;2023-02-28T16:12:14;19.08;;;12.50;;
53521;SDS011;39398;48.382;9.802;2023-02-28T16:17:16;20.02;;;13.05;;
53521;SDS011;39398;48.382;9.802;2023-02-28T16:22:23;18.45;;;13.10;;
53521;SDS011;39398;48.382;9.802;2023-02-28T16:27:26;20.95;;;13.65;;
53521;SDS011;39398;48.382;9.802;2023-02-28T16:32:32;20.52;;;13.45;;
53521;SDS011;39398;48.382;9.802;2023-02-28T16:37:37;20.23;;;13.68;;
53521;SDS011;39398;48.382;9.802;2023-02-28T16:42:39;19.15;;;12.25;;
53521;SDS011;39398;48.382;9.802;2023-02-28T16:47:42;21.30;;;13.68;;
53521;SDS011;39398;48.382;9.802;2023-02-28T16:52:45;19.75;;;13.52;;
53521;SDS011;39398;48.382;9.802;2023-02-28T16:57:47;18.58;;;12.80;;
53521;SDS011;39398;48.382;9.802;2023-02-28T17:02:52;26.17;;;17.95;;
53521;SDS011;39398;48.382;9.802;2023-02-28T17:07:56;17.85;;;12.07;;
53521;SDS011;39398;48.382;9.802;2023-02-28T17:12:57;23.75;;;16.92;;
53521;SDS011;39398;48.382;9.802;2023-02-28T17:18:15;21.38;;;13.32;;
53521;SDS011;39398;48.382;9.802;2023-02-28T17:23:20;18.80;;;12.63;;
53521;SDS011;39398;48.382;9.802;2023-02-28T17:28:21;18.77;;;12.50;;
53521;SDS011;39398;48.382;9.802;2023-02-28T17:33:23;23.55;;;14.07;;
53521;SDS011;39398;48.382;9.802;2023-02-28T17:38:26;16.92;;;10.20;;
53521;SDS011;39398;48.382;9.802;2023-02-28T17:43:27;18.13;;;12.95;;
53521;SDS011;39398;48.382;9.802;2023-02-28T17:48:29;20.33;;;12.60;;
53521;SDS011;39398;48.382;9.802;2023-02-28T17:53:33;19.35;;;12.38;;
53521;SDS011;39398;48.382;9.802;2023-02-28T17:58:35;18.58;;;10.18;;
53521;SDS011;39398;48.382;9.802;2023-02-28T18:03:36;18.45;;;10.43;;
53521;SDS011;39398;48.382;9.802;2023-02-28T18:08:39;22.70;;;12.82;;
53521;SDS011;39398;48.382;9.802;2023-02-28T18:13:41;19.95;;;11.10;;
53521;SDS011;39398;48.382;9.802;2023-02-28T18:18:42;20.15;;;13.15;;
53521;SDS011;39398;48.382;9.802;2023-02-28T18:23:46;17.75;;;9.23;;
53521;SDS011;39398;48.382;9.802;2023-02-28T18:28:47;20.55;;;10.93;;
53521;SDS011;39398;48.382;9.802;2023-02-28T18:33:50;19.00;;;9.75;;
53521;SDS011;39398;48.382;9.802;2023-02-28T18:38:54;17.70;;;9.80;;
53521;SDS011;39398;48.382;9.802;2023-02-28T18:43:56;19.95;;;13.00;;
53521;SDS011;39398;48.382;9.802;2023-02-28T18:48:59;20.15;;;10.35;;
53521;SDS011;39398;48.382;9.802;2023-02-28T18:54:02;23.45;;;14.30;;
53521;SDS011;39398;48.382;9.802;2023-02-28T18:59:04;20.05;;;11.70;;
53521;SDS011;39398;48.382;9.802;2023-02-28T19:04:05;20.45;;;12.77;;
53521;SDS011;39398;48.382;9.802;2023-02-28T19:09:08;24.58;;;13.40;;
53521;SDS011;39398;48.382;9.802;2023-02-28T19:14:10;21.38;;;13.52;;
53521;SDS011;39398;48.382;9.802;2023-02-28T19:19:11;20.30;;;11.02;;
53521;SDS011;39398;48.382;9.802;2023-02-28T19:24:14;19.85;;;11.52;;
53521;SDS011;39398;48.382;9.802;2023-02-28T19:29:16;21.10;;;12.30;;
53521;SDS011;39398;48.382;9.802;2023-02-28T19:34:18;20.80;;;11.10;;
53521;SDS011;39398;48.382;9.802;2023-02-28T19:39:21;17.83;;;9.80;;
53521;SDS011;39398;48.382;9.802;2023-02-28T19:44:22;22.20;;;10.90;;
53521;SDS011;39398;48.382;9.802;2023-02-28T19:49:24;14.82;;;8.80;;
53521;SDS011;39398;48.382;9.802;2023-02-28T19:54:28;18.73;;;10.60;;
53521;SDS011;39398;48.382;9.802;2023-02-28T19:59:30;26.83;;;11.57;;
53521;SDS011;39398;48.382;9.802;2023-02-28T20:04:40;22.23;;;11.82;;
53521;SDS011;39398;48.382;9.802;2023-02-28T20:09:43;21.23;;;12.25;;
53521;SDS011;39398;48.382;9.802;2023-02-28T20:14:44;22.67;;;11.30;;
53521;SDS011;39398;48.382;9.802;2023-02-28T20:19:46;15.90;;;9.38;;
53521;SDS011;39398;48.382;9.802;2023-02-28T20:24:49;20.92;;;11.57;;
53521;SDS011;39398;48.382;9.802;2023-02-28T20:29:51;19.85;;;12.32;;
53521;SDS011;39398;48.382;9.802;2023-02-28T20:34:52;18.73;;;11.80;;
53521;SDS011;39398;48.382;9.802;2023-02-28T20:39:55;23.23;;;12.07;;
53521;SDS011;39398;48.382;9.802;2023-02-28T20:44:57;20.55;;;11.73;;
53521;SDS011;39398;48.382;9.802;2023-02-28T20:49:58;18.50;;;9.50;;
53521;SDS011;39398;48.382;9.802;2023-02-28T20:55:01;13.75;;;8.50;;
53521;SDS011;39398;48.382;9.802;2023-02-28T21:00:03;17.10;;;9.63;;
53521;SDS011;39398;48.382;9.802;2023-02-28T21:05:07;23.58;;;13.48;;
53521;SDS011;39398;48.382;9.802;2023-02-28T21:10:11;25.48;;;15.05;;
53521;SDS011;39398;48.382;9.802;2023-02-28T21:15:12;15.00;;;9.70;;
53521;SDS011;39398;48.382;9.802;2023-02-28T21:20:14;23.77;;;12.13;;
53521;SDS011;39398;48.382;9.802;2023-02-28T21:25:17;23.48;;;13.35;;
53521;SDS011;39398;48.382;9.802;2023-02-28T21:30:19;18.52;;;9.98;;
53521;SDS011;39398;48.382;9.802;2023-02-28T21:35:21;19.55;;;10.05;;
53521;SDS011;39398;48.382;9.802;2023-02-28T21:40:24;22.02;;;12.48;;
53521;SDS011;39398;48.382;9.802;2023-02-28T21:45:26;22.33;;;11.95;;
53521;SDS011;39398;48.382;9.802;2023-02-28T21:50:28;18.40;;;9.82;;
53521;SDS011;39398;48.382;9.802;2023-02-28T21:55:32;14.70;;;8.05;;
53521;SDS011;39398;48.382;9.802;2023-02-28T22:00:34;23.65;;;11.60;;
53521;SDS011;39398;48.382;9.802;2023-02-28T22:05:36;27.10;;;14.20;;
53521;SDS011;39398;48.382;9.802;2023-02-28T22:10:38;20.02;;;10.60;;
53521;SDS011;39398;48.382;9.802;2023-02-28T22:15:40;19.63;;;10.52;;
53521;SDS011;39398;48.382;9.802;2023-02-28T22:20:42;20.63;;;10.60;;
53521;SDS011;39398;48.382;9.802;2023-02-28T22:25:45;23.60;;;14.20;;
53521;SDS011;39398;48.382;9.802;2023-02-28T22:30:46;24.88;;;12.63;;
53521;SDS011;39398;48.382;9.802;2023-02-28T22:35:48;21.77;;;11.70;;
53521;SDS011;39398;48.382;9.802;2023-02-28T22:40:51;17.05;;;9.77;;
53521;SDS011;39398;48.382;9.802;2023-02-28T22:45:59;18.30;;;8.13;;
53521;SDS011;39398;48.382;9.802;2023-02-28T22:51:03;18.55;;;10.07;;
53521;SDS011;39398;48.382;9.802;2023-02-28T22:56:08;17.65;;;10.85;;
53521;SDS011;39398;48.382;9.802;2023-02-28T23:01:12;26.45;;;15.32;;
53521;SDS011;39398;48.382;9.802;2023-02-28T23:06:17;22.52;;;11.88;;
53521;SDS011;39398;48.382;9.802;2023-02-28T23:11:22;22.60;;;12.50;;
53521;SDS011;39398;48.382;9.802;2023-02-28T23:16:25;24.25;;;12.57;;
53521;SDS011;39398;48.382;9.802;2023-02-28T23:21:29;22.73;;;10.73;;
53521;SDS011;39398;48.382;9.802;2023-02-28T23:26:32;28.95;;;13.10;;
53521;SDS011;39398;48.382;9.802;2023-02-28T23:31:33;27.42;;;16.23;;
53521;SDS011;39398;48.382;9.802;2023-02-28T23:36:36;26.92;;;12.00;;
53521;SDS011;39398;48.382;9.802;2023-02-28T23:41:39;22.90;;;11.70;;
53521;SDS011;39398;48.382;9.802;2023-02-28T23:46:40;24.55;;;12.30;;
53521;SDS011;39398;48.382;9.802;2023-02-28T23:51:42;34.17;;;15.50;;
53521;SDS011;39398;48.382;9.802;2023-02-28T23:56:45;22.40;;;11.23;;
